Time;durP1;ratioP1;P1;durP2;ratioP2;P2;SDS_P1;SDS_P2;PMS_P1;PMS_P2;Temp;Humidity;BMP_temperature;BMP_pressure;BME280_temperature;BME280_humidity;BME280_pressure;Samples;Min_cycle;Max_cycle;Signal;HPM_P1;HPM_P2
2022/04/17 00:00:46;;;;;;;;;;;10.80;99.90;;;;;;4950626;28;20277;-76
2022/04/17 00:03:11;;;;;;;;;;;10.80;99.90;;;;;;4947401;28;19978;-77
2022/04/17 00:05:37;;;;;;;;;;;10.70;99.90;;;;;;4957198;28;20001;-76
2022/04/17 00:08:03;;;;;;;;;;;10.80;99.90;;;;;;4946980;29;20281;-75
2022/04/17 00:10:29;;;;;;;;;;;10.80;99.90;;;;;;4944686;28;19966;-76
2022/04/17 00:12:55;;;;;;;;;;;10.80;99.90;;;;;;4939341;28;19922;-77
2022/04/17 00:15:20;;;;;;;;;;;10.80;99.90;;;;;;4951919;28;19915;-78
2022/04/17 00:17:46;;;;;;;;;;;10.90;99.90;;;;;;4953025;28;20014;-77
2022/04/17 00:20:13;;;;;;;;;;;10.90;99.90;;;;;;4950569;29;20009;-76
2022/04/17 00:22:39;;;;;;;;;;;10.90;99.90;;;;;;4958617;28;19915;-76
2022/04/17 00:25:05;;;;;;;;;;;10.90;99.90;;;;;;4945245;29;19921;-78
2022/04/17 00:27:30;;;;;;;;;;;10.80;99.90;;;;;;4973848;28;20384;-76
2022/04/17 00:29:56;;;;;;;;;;;10.80;99.90;;;;;;4952538;28;19918;-77
2022/04/17 00:32:21;;;;;;;;;;;10.80;99.90;;;;;;4953523;28;19914;-77
2022/04/17 00:34:47;;;;;;;;;;;10.80;99.90;;;;;;4956803;29;19921;-76
2022/04/17 00:37:12;;;;;;;;;;;10.80;99.90;;;;;;4955716;29;19938;-77
2022/04/17 00:39:40;;;;;;;;;;;10.70;99.90;;;;;;4951469;29;19930;-77
2022/04/17 00:45:09;;;;;;;;;;;10.70;99.90;;;;;;4949786;28;19947;-77
2022/04/17 00:47:35;;;;;;;;;;;10.70;99.90;;;;;;4945596;28;20325;-78
2022/04/17 00:50:01;;;;;;;;;;;10.60;99.90;;;;;;4946041;28;19930;-77
2022/04/17 00:52:27;;;;;;;;;;;10.60;99.90;;;;;;4955910;29;20284;-78
2022/04/17 00:54:54;;;;;;;;;;;10.50;99.90;;;;;;4967877;28;19915;-79
2022/04/17 00:57:20;;;;;;;;;;;10.40;99.90;;;;;;4955443;28;19922;-77
2022/04/17 00:59:46;;;;;;;;;;;10.50;99.90;;;;;;4949508;29;19914;-78
2022/04/17 01:02:14;;;;;;;;;;;10.40;99.90;;;;;;4953031;28;19918;-77
2022/04/17 01:04:39;;;;;;;;;;;10.30;99.90;;;;;;4948699;28;19937;-77
2022/04/17 01:07:06;;;;;;;;;;;10.40;99.90;;;;;;4948376;29;19923;-76
2022/04/17 01:09:33;;;;;;;;;;;10.40;99.90;;;;;;4949906;28;20266;-78
2022/04/17 01:11:58;;;;;;;;;;;10.40;99.90;;;;;;4949978;28;19915;-77
2022/04/17 01:14:27;;;;;;;;;;;10.30;99.90;;;;;;4962433;28;20013;-78
2022/04/17 01:16:52;;;;;;;;;;;10.30;99.90;;;;;;4948453;28;19914;-78
2022/04/17 01:19:18;;;;;;;;;;;10.30;99.90;;;;;;4941706;28;19921;-76
2022/04/17 01:21:46;;;;;;;;;;;10.20;99.90;;;;;;4953644;29;19922;-78
2022/04/17 01:26:56;;;;;;;;;;;10.20;99.90;;;;;;4957145;28;20295;-78
2022/04/17 01:29:23;;;;;;;;;;;10.20;99.90;;;;;;4948254;28;19926;-77
2022/04/17 01:31:48;;;;;;;;;;;10.20;99.90;;;;;;4952328;28;19921;-77
2022/04/17 01:34:15;;;;;;;;;;;10.20;99.90;;;;;;4943096;29;20359;-77
2022/04/17 01:36:42;;;;;;;;;;;10.10;99.90;;;;;;4951190;28;19946;-77
2022/04/17 01:39:07;;;;;;;;;;;10.00;99.90;;;;;;4944304;28;19927;-78
2022/04/17 01:41:33;;;;;;;;;;;10.00;99.90;;;;;;4948700;29;19973;-77
2022/04/17 01:43:58;;;;;;;;;;;9.90;99.90;;;;;;4951028;28;19915;-77
2022/04/17 01:46:24;;;;;;;;;;;9.90;99.90;;;;;;4950329;28;19970;-77
2022/04/17 01:48:50;;;;;;;;;;;9.80;99.90;;;;;;4949796;28;19922;-77
2022/04/17 01:51:15;;;;;;;;;;;9.70;99.90;;;;;;4942509;29;20736;-77
2022/04/17 01:53:44;;;;;;;;;;;9.70;99.90;;;;;;4947639;28;19915;-77
2022/04/17 01:56:10;;;;;;;;;;;9.60;99.90;;;;;;4942865;29;19945;-78
2022/04/17 01:58:35;;;;;;;;;;;9.50;99.90;;;;;;4948640;28;19922;-77
2022/04/17 02:01:04;;;;;;;;;;;9.50;99.90;;;;;;4940695;29;19919;-77
2022/04/17 02:03:30;;;;;;;;;;;9.40;99.90;;;;;;4941572;29;19921;-77
2022/04/17 02:05:56;;;;;;;;;;;9.30;99.90;;;;;;4947338;28;19918;-77
2022/04/17 02:08:21;;;;;;;;;;;9.30;99.90;;;;;;4949116;28;20372;-77
2022/04/17 02:10:47;;;;;;;;;;;9.30;99.90;;;;;;4944615;29;19926;-77
2022/04/17 02:13:12;;;;;;;;;;;9.20;99.90;;;;;;4947723;29;19915;-77
2022/04/17 02:15:41;;;;;;;;;;;9.30;99.90;;;;;;4948269;28;19979;-76
2022/04/17 02:18:06;;;;;;;;;;;9.20;99.90;;;;;;4945712;28;19922;-77
2022/04/17 02:20:32;;;;;;;;;;;9.10;99.90;;;;;;4947374;29;19915;-77
2022/04/17 02:22:58;;;;;;;;;;;9.00;99.90;;;;;;4954694;28;19915;-78
2022/04/17 02:25:23;;;;;;;;;;;8.90;99.90;;;;;;4952009;28;20187;-76
2022/04/17 02:27:49;;;;;;;;;;;8.90;99.90;;;;;;4953665;29;20005;-76
2022/04/17 02:30:14;;;;;;;;;;;8.80;99.90;;;;;;4948822;28;19933;-76
2022/04/17 02:32:40;;;;;;;;;;;8.90;99.90;;;;;;4945343;29;19936;-76
2022/04/17 02:35:06;;;;;;;;;;;8.80;99.90;;;;;;4953256;28;19921;-77
2022/04/17 02:37:32;;;;;;;;;;;8.80;99.90;;;;;;4964063;28;19914;-77
2022/04/17 02:39:57;;;;;;;;;;;8.70;99.90;;;;;;4948629;28;19957;-76
2022/04/17 02:42:23;;;;;;;;;;;8.70;99.90;;;;;;4955383;29;19978;-76
2022/04/17 02:44:48;;;;;;;;;;;8.70;99.90;;;;;;4949579;29;19969;-77
2022/04/17 02:49:58;;;;;;;;;;;8.70;99.90;;;;;;4955968;29;19998;-77
2022/04/17 02:52:26;;;;;;;;;;;8.70;99.90;;;;;;4947915;28;19965;-76
2022/04/17 02:54:53;;;;;;;;;;;8.60;99.90;;;;;;4954525;29;19914;-77
2022/04/17 02:57:19;;;;;;;;;;;8.60;99.90;;;;;;4966599;29;19923;-77
2022/04/17 02:59:45;;;;;;;;;;;8.60;99.90;;;;;;4963583;28;19978;-77
2022/04/17 03:07:39;;;;;;;;;;;8.30;99.90;;;;;;4968459;28;19933;-76
2022/04/17 03:10:05;;;;;;;;;;;8.30;99.90;;;;;;4959609;28;19958;-76
2022/04/17 03:12:30;;;;;;;;;;;8.20;99.90;;;;;;4960639;28;20049;-77
2022/04/17 03:14:56;;;;;;;;;;;8.20;99.90;;;;;;4970535;28;19914;-76
2022/04/17 03:17:25;;;;;;;;;;;8.20;99.90;;;;;;4969612;28;19938;-76
2022/04/17 03:19:52;;;;;;;;;;;8.10;99.90;;;;;;4963711;29;19973;-77
2022/04/17 03:22:20;;;;;;;;;;;8.10;99.90;;;;;;4969671;28;19922;-77
2022/04/17 03:24:46;;;;;;;;;;;8.00;99.90;;;;;;4969062;29;19921;-76
2022/04/17 03:27:11;;;;;;;;;;;8.00;99.90;;;;;;4970922;29;19922;-76
2022/04/17 03:29:37;;;;;;;;;;;7.90;99.90;;;;;;4970238;28;19919;-77
2022/04/17 03:32:02;;;;;;;;;;;7.90;99.90;;;;;;4970137;29;20396;-76
2022/04/17 03:34:28;;;;;;;;;;;7.90;99.90;;;;;;4953408;29;20352;-76
2022/04/17 03:36:53;;;;;;;;;;;7.90;99.90;;;;;;4953353;29;19919;-76
2022/04/17 03:39:19;;;;;;;;;;;7.80;99.90;;;;;;4956229;28;19943;-77
2022/04/17 03:41:45;;;;;;;;;;;7.80;99.90;;;;;;4949895;28;19915;-76
2022/04/17 03:44:12;;;;;;;;;;;7.80;99.90;;;;;;4955976;29;19915;-76
2022/04/17 03:46:37;;;;;;;;;;;7.90;99.90;;;;;;4956315;28;19925;-76
2022/04/17 03:49:04;;;;;;;;;;;8.00;99.90;;;;;;4967811;28;20451;-77
2022/04/17 03:51:33;;;;;;;;;;;8.00;99.90;;;;;;4956269;28;19922;-77
2022/04/17 03:53:58;;;;;;;;;;;7.90;99.90;;;;;;4957492;29;19914;-77
2022/04/17 03:56:24;;;;;;;;;;;7.90;99.90;;;;;;4956293;28;19915;-78
2022/04/17 03:58:50;;;;;;;;;;;7.90;99.90;;;;;;4953918;28;20372;-77
2022/04/17 04:01:15;;;;;;;;;;;7.80;99.90;;;;;;4953683;28;19940;-78
2022/04/17 04:03:41;;;;;;;;;;;7.80;99.90;;;;;;4952979;28;19970;-77
2022/04/17 04:06:07;;;;;;;;;;;7.80;99.90;;;;;;4951402;28;20308;-77
2022/04/17 04:08:32;;;;;;;;;;;7.90;99.90;;;;;;4953101;28;19927;-77
2022/04/17 04:10:58;;;;;;;;;;;7.90;99.90;;;;;;4954972;28;19921;-77
2022/04/17 04:13:23;;;;;;;;;;;7.90;99.90;;;;;;4959521;28;19917;-77
2022/04/17 04:15:49;;;;;;;;;;;7.90;99.90;;;;;;4958998;29;19914;-77
2022/04/17 04:18:14;;;;;;;;;;;7.80;99.90;;;;;;4972073;29;19915;-77
2022/04/17 04:20:40;;;;;;;;;;;7.90;99.90;;;;;;4964258;28;19926;-77
2022/04/17 04:23:06;;;;;;;;;;;7.80;99.90;;;;;;4962275;28;19970;-76
2022/04/17 04:25:34;;;;;;;;;;;7.80;99.90;;;;;;4973837;29;19909;-76
2022/04/17 04:30:43;;;;;;;;;;;7.70;99.90;;;;;;4967568;29;19921;-77
2022/04/17 04:33:09;;;;;;;;;;;7.70;99.90;;;;;;4978167;28;19914;-76
2022/04/17 04:35:35;;;;;;;;;;;7.70;99.90;;;;;;4976468;29;19907;-76
2022/04/17 04:38:01;;;;;;;;;;;7.80;99.90;;;;;;4962319;29;19989;-76
2022/04/17 04:40:29;;;;;;;;;;;7.80;99.90;;;;;;4952621;28;19959;-76
2022/04/17 04:43:01;;;;;;;;;;;8.00;99.90;;;;;;4954698;29;19914;-76
2022/04/17 04:48:11;;;;;;;;;;;8.10;99.90;;;;;;4941033;28;20339;-76
2022/04/17 04:50:37;;;;;;;;;;;8.10;99.90;;;;;;4951597;29;19958;-77
2022/04/17 04:53:02;;;;;;;;;;;8.10;99.90;;;;;;4944498;29;20025;-78
2022/04/17 04:55:28;;;;;;;;;;;8.20;99.90;;;;;;4946432;28;19918;-77
2022/04/17 04:57:54;;;;;;;;;;;8.20;99.90;;;;;;4944206;28;20373;-76
2022/04/17 05:00:19;;;;;;;;;;;8.30;99.90;;;;;;4949048;29;19922;-77
2022/04/17 05:02:45;;;;;;;;;;;8.30;99.90;;;;;;4953500;29;19931;-77
2022/04/17 05:05:10;;;;;;;;;;;8.20;99.90;;;;;;4958796;28;20387;-77
2022/04/17 05:07:36;;;;;;;;;;;8.10;99.90;;;;;;4947703;29;20004;-77
2022/04/17 05:10:03;;;;;;;;;;;8.00;99.90;;;;;;4953364;29;20419;-78
2022/04/17 05:12:28;;;;;;;;;;;8.00;99.90;;;;;;4953786;29;20379;-77
2022/04/17 05:14:54;;;;;;;;;;;7.90;99.90;;;;;;4947288;28;19915;-77
2022/04/17 05:17:20;;;;;;;;;;;7.90;99.90;;;;;;4953586;28;19994;-76
2022/04/17 05:19:45;;;;;;;;;;;7.90;99.90;;;;;;4945721;28;19974;-76
2022/04/17 05:22:15;;;;;;;;;;;7.80;99.90;;;;;;4954261;29;19914;-77
2022/04/17 05:24:42;;;;;;;;;;;7.90;99.90;;;;;;4949312;29;20357;-76
2022/04/17 05:27:07;;;;;;;;;;;8.00;99.90;;;;;;4953702;28;19926;-76
2022/04/17 05:29:33;;;;;;;;;;;8.00;99.90;;;;;;4951207;28;19914;-77
2022/04/17 05:31:59;;;;;;;;;;;8.00;99.90;;;;;;4946110;28;20013;-77
2022/04/17 05:34:25;;;;;;;;;;;8.10;99.90;;;;;;4950752;28;19942;-76
2022/04/17 05:36:50;;;;;;;;;;;8.10;99.90;;;;;;4948826;28;19926;-76
2022/04/17 05:39:16;;;;;;;;;;;8.10;99.90;;;;;;4940848;29;19954;-77
2022/04/17 05:41:42;;;;;;;;;;;8.20;99.90;;;;;;4952530;28;19915;-78
2022/04/17 05:44:08;;;;;;;;;;;8.20;99.90;;;;;;4948764;28;19929;-77
2022/04/17 05:46:36;;;;;;;;;;;8.30;99.90;;;;;;4952097;28;20384;-77
2022/04/17 05:49:02;;;;;;;;;;;8.30;99.90;;;;;;4950622;28;20289;-76
2022/04/17 05:51:27;;;;;;;;;;;8.30;99.90;;;;;;4950554;28;20273;-77
2022/04/17 05:53:53;;;;;;;;;;;8.40;99.90;;;;;;4955209;28;19961;-77
2022/04/17 05:56:19;;;;;;;;;;;8.60;99.90;;;;;;4955072;29;19921;-77
2022/04/17 05:58:44;;;;;;;;;;;8.80;99.90;;;;;;4954244;28;19915;-78
2022/04/17 06:01:11;;;;;;;;;;;8.90;99.90;;;;;;4946571;28;19945;-76
2022/04/17 06:03:37;;;;;;;;;;;9.00;99.90;;;;;;4947797;29;19925;-78
2022/04/17 06:06:03;;;;;;;;;;;9.10;99.90;;;;;;4953546;29;19919;-77
2022/04/17 06:08:28;;;;;;;;;;;9.20;99.90;;;;;;4954163;29;19922;-78
2022/04/17 06:10:54;;;;;;;;;;;9.30;99.90;;;;;;4961017;28;19969;-76
2022/04/17 06:13:19;;;;;;;;;;;9.30;99.90;;;;;;4947945;28;19938;-77
2022/04/17 06:15:45;;;;;;;;;;;9.50;99.90;;;;;;4954361;28;20122;-79
2022/04/17 06:18:10;;;;;;;;;;;9.60;99.90;;;;;;4951828;29;19915;-77
2022/04/17 06:20:36;;;;;;;;;;;9.60;99.90;;;;;;4949209;28;19972;-78
2022/04/17 06:23:02;;;;;;;;;;;9.70;99.90;;;;;;4944154;28;19914;-78
2022/04/17 06:25:27;;;;;;;;;;;9.80;99.90;;;;;;4949802;28;19994;-78
2022/04/17 06:27:54;;;;;;;;;;;9.80;99.90;;;;;;4950745;28;19946;-78
2022/04/17 06:30:20;;;;;;;;;;;9.70;99.90;;;;;;4949086;28;20372;-76
2022/04/17 06:32:46;;;;;;;;;;;9.80;99.90;;;;;;4951416;28;20005;-77
2022/04/17 06:35:12;;;;;;;;;;;9.80;99.90;;;;;;4950385;29;20463;-78
2022/04/17 06:37:47;;;;;;;;;;;9.90;99.90;;;;;;4952637;28;19957;-78
2022/04/17 06:40:23;;;;;;;;;;;10.00;99.90;;;;;;4951385;28;19918;-78
2022/04/17 06:42:50;;;;;;;;;;;10.10;99.90;;;;;;4949674;29;19922;-78
2022/04/17 06:45:16;;;;;;;;;;;10.20;99.90;;;;;;4968021;28;20328;-77
2022/04/17 06:47:42;;;;;;;;;;;10.30;99.90;;;;;;4949733;28;20346;-78
2022/04/17 06:50:08;;;;;;;;;;;10.40;99.90;;;;;;4946160;29;19938;-77
2022/04/17 06:52:33;;;;;;;;;;;10.40;99.90;;;;;;4945555;29;19914;-77
2022/04/17 06:54:59;;;;;;;;;;;10.60;99.90;;;;;;4957554;28;19915;-77
2022/04/17 06:57:28;;;;;;;;;;;10.70;99.90;;;;;;4946038;28;19921;-77
2022/04/17 06:59:54;;;;;;;;;;;10.70;99.90;;;;;;4950215;29;19915;-77
2022/04/17 07:02:19;;;;;;;;;;;10.80;99.90;;;;;;4950903;28;19922;-77
2022/04/17 07:04:45;;;;;;;;;;;10.90;99.90;;;;;;4949158;28;19919;-77
2022/04/17 07:07:10;;;;;;;;;;;11.00;99.90;;;;;;4945539;28;20296;-78
2022/04/17 07:09:36;;;;;;;;;;;11.10;99.90;;;;;;4964240;28;19970;-78
2022/04/17 07:12:02;;;;;;;;;;;11.30;99.90;;;;;;4942321;28;19923;-77
2022/04/17 07:14:28;;;;;;;;;;;11.50;99.90;;;;;;4946084;28;19914;-77
2022/04/17 07:16:55;;;;;;;;;;;11.50;99.90;;;;;;4940883;28;20395;-79
2022/04/17 07:19:21;;;;;;;;;;;11.60;99.90;;;;;;4948877;28;20020;-77
2022/04/17 07:21:47;;;;;;;;;;;11.80;99.90;;;;;;4949254;29;19950;-80
2022/04/17 07:24:12;;;;;;;;;;;11.80;99.90;;;;;;4951076;29;19918;-79
2022/04/17 07:26:38;;;;;;;;;;;11.80;99.90;;;;;;4946123;28;20364;-79
2022/04/17 07:29:04;;;;;;;;;;;11.90;99.90;;;;;;4950352;28;20613;-79
2022/04/17 07:31:30;;;;;;;;;;;12.00;99.90;;;;;;4944950;28;19919;-81
2022/04/17 07:33:57;;;;;;;;;;;12.20;99.90;;;;;;4945739;28;19920;-78
2022/04/17 07:36:23;;;;;;;;;;;12.40;99.90;;;;;;4940301;28;20419;-76
2022/04/17 07:38:48;;;;;;;;;;;12.20;99.90;;;;;;4940409;28;19985;-76
2022/04/17 07:41:14;;;;;;;;;;;12.10;99.90;;;;;;4949477;28;20410;-84
2022/04/17 07:43:39;;;;;;;;;;;12.30;99.90;;;;;;4953152;28;20024;-81
2022/04/17 07:46:06;;;;;;;;;;;12.50;99.90;;;;;;4954192;29;19915;-80
2022/04/17 07:48:32;;;;;;;;;;;12.70;99.90;;;;;;4968809;28;19931;-77
2022/04/17 07:50:57;;;;;;;;;;;12.70;99.90;;;;;;4947561;28;19989;-77
2022/04/17 07:53:23;;;;;;;;;;;12.70;99.90;;;;;;4952032;28;19914;-79
2022/04/17 07:55:49;;;;;;;;;;;12.80;99.90;;;;;;4949034;29;19914;-77
2022/04/17 08:00:59;;;;;;;;;;;13.20;99.90;;;;;;4952539;29;19915;-77
2022/04/17 08:06:05;;;;;;;;;;;13.20;99.90;;;;;;4954950;28;20457;-77
2022/04/17 08:08:31;;;;;;;;;;;13.30;99.90;;;;;;4942936;29;19929;-76
2022/04/17 08:10:57;;;;;;;;;;;13.30;99.90;;;;;;4951070;28;19958;-75
2022/04/17 08:13:23;;;;;;;;;;;13.50;99.90;;;;;;4947379;29;19915;-75
2022/04/17 08:15:50;;;;;;;;;;;13.60;99.90;;;;;;4947127;29;19922;-74
2022/04/17 08:18:16;;;;;;;;;;;13.80;99.90;;;;;;4948510;29;20377;-76
2022/04/17 08:20:41;;;;;;;;;;;13.80;99.90;;;;;;4962064;28;19918;-74
2022/04/17 08:23:07;;;;;;;;;;;13.80;99.90;;;;;;4950082;28;19930;-76
2022/04/17 08:25:34;;;;;;;;;;;13.70;99.90;;;;;;4950664;28;21242;-74
2022/04/17 08:28:00;;;;;;;;;;;13.80;99.90;;;;;;4949284;28;19923;-75
2022/04/17 08:30:26;;;;;;;;;;;13.90;99.90;;;;;;4951916;28;19968;-75
2022/04/17 08:32:52;;;;;;;;;;;13.90;99.90;;;;;;4950739;28;19922;-75
2022/04/17 08:35:18;;;;;;;;;;;14.00;99.90;;;;;;4949328;28;19918;-75
2022/04/17 08:37:43;;;;;;;;;;;14.00;99.90;;;;;;4956728;28;19922;-75
2022/04/17 08:40:10;;;;;;;;;;;14.10;99.90;;;;;;4943948;28;20017;-75
2022/04/17 08:42:36;;;;;;;;;;;14.20;99.90;;;;;;4952930;28;19915;-75
2022/04/17 08:45:02;;;;;;;;;;;14.40;99.90;;;;;;4948545;29;19960;-76
2022/04/17 08:47:28;;;;;;;;;;;14.40;99.90;;;;;;4951264;29;20391;-76
2022/04/17 08:49:54;;;;;;;;;;;14.50;99.90;;;;;;4946515;28;20284;-75
2022/04/17 08:52:21;;;;;;;;;;;14.50;99.90;;;;;;4951278;28;19922;-76
2022/04/17 08:54:47;;;;;;;;;;;14.60;99.90;;;;;;4951666;28;19951;-75
2022/04/17 08:57:13;;;;;;;;;;;14.60;99.90;;;;;;4966343;28;19922;-75
2022/04/17 08:59:38;;;;;;;;;;;14.50;99.90;;;;;;4962526;28;19914;-76
2022/04/17 09:02:05;;;;;;;;;;;14.70;99.90;;;;;;4975863;28;19942;-77
2022/04/17 09:04:34;;;;;;;;;;;14.80;99.90;;;;;;4963589;28;19921;-75
2022/04/17 09:07:00;;;;;;;;;;;15.00;99.90;;;;;;4953363;28;19922;-77
2022/04/17 09:09:26;;;;;;;;;;;14.90;99.90;;;;;;4948496;28;19922;-75
2022/04/17 09:11:58;;;;;;;;;;;14.80;99.90;;;;;;4946327;28;20245;-76
2022/04/17 09:14:23;;;;;;;;;;;14.80;99.90;;;;;;4962452;28;19922;-76
2022/04/17 09:16:50;;;;;;;;;;;14.90;99.90;;;;;;4947769;28;19914;-74
2022/04/17 09:19:16;;;;;;;;;;;14.90;99.90;;;;;;4956247;28;20353;-76
2022/04/17 09:21:41;;;;;;;;;;;15.10;99.90;;;;;;4949069;28;19993;-75
2022/04/17 09:24:13;;;;;;;;;;;15.10;99.90;;;;;;4953952;28;20032;-75
2022/04/17 09:26:53;;;;;;;;;;;15.30;99.90;;;;;;4947902;28;20395;-76
2022/04/17 09:29:19;;;;;;;;;;;15.40;99.90;;;;;;4946670;28;19921;-74
2022/04/17 09:31:45;;;;;;;;;;;15.60;99.90;;;;;;4961701;28;19914;-74
2022/04/17 09:34:10;;;;;;;;;;;15.70;99.90;;;;;;4946920;28;20341;-75
2022/04/17 09:36:37;;;;;;;;;;;15.70;99.90;;;;;;4947126;28;20017;-75
2022/04/17 09:39:15;;;;;;;;;;;15.80;99.90;;;;;;4945721;28;19943;-76
2022/04/17 09:41:56;;;;;;;;;;;15.90;99.90;;;;;;4952435;29;20387;-74
2022/04/17 09:44:47;;;;;;;;;;;16.00;99.90;;;;;;4950123;28;20357;-75
2022/04/17 09:47:16;;;;;;;;;;;16.00;99.90;;;;;;4946363;28;20380;-76
2022/04/17 09:50:08;;;;;;;;;;;16.20;99.90;;;;;;4944216;28;20337;-76
2022/04/17 09:52:41;;;;;;;;;;;16.40;99.90;;;;;;4952131;29;19914;-74
2022/04/17 09:55:08;;;;;;;;;;;16.60;99.90;;;;;;4945225;28;19926;-76
2022/04/17 09:57:37;;;;;;;;;;;16.70;99.90;;;;;;4941449;28;19994;-74
2022/04/17 10:00:11;;;;;;;;;;;16.60;99.90;;;;;;4949532;29;20193;-74
2022/04/17 10:02:40;;;;;;;;;;;16.70;99.90;;;;;;4959631;28;19931;-76
2022/04/17 10:05:07;;;;;;;;;;;16.80;99.90;;;;;;4952166;28;19973;-76
2022/04/17 10:07:34;;;;;;;;;;;16.90;99.90;;;;;;4950401;28;20024;-75
2022/04/17 10:10:00;;;;;;;;;;;17.20;99.90;;;;;;4951477;28;19926;-76
2022/04/17 10:12:25;;;;;;;;;;;17.40;99.90;;;;;;4959104;28;19978;-76
2022/04/17 10:14:52;;;;;;;;;;;17.40;99.90;;;;;;4967414;28;19915;-76
2022/04/17 10:17:21;;;;;;;;;;;17.40;99.90;;;;;;4958879;29;19919;-77
2022/04/17 10:19:48;;;;;;;;;;;17.30;99.90;;;;;;4952142;28;19957;-76
2022/04/17 10:22:18;;;;;;;;;;;17.20;99.90;;;;;;4948938;29;19914;-74
2022/04/17 10:24:51;;;;;;;;;;;17.30;99.90;;;;;;4956758;28;19930;-75
2022/04/17 10:27:37;;;;;;;;;;;17.40;99.90;;;;;;4934745;28;19930;-75
2022/04/17 10:30:16;;;;;;;;;;;17.50;99.90;;;;;;4948226;28;20253;-74
2022/04/17 10:32:48;;;;;;;;;;;17.60;99.90;;;;;;4945303;29;19919;-76
2022/04/17 10:35:27;;;;;;;;;;;17.80;99.90;;;;;;4945600;29;19915;-75
2022/04/17 10:37:53;;;;;;;;;;;18.00;99.90;;;;;;4949081;28;19930;-76
2022/04/17 10:40:18;;;;;;;;;;;17.90;99.70;;;;;;4950470;29;20380;-76
2022/04/17 10:42:54;;;;;;;;;;;17.80;99.90;;;;;;4942246;29;19961;-76
2022/04/17 10:45:21;;;;;;;;;;;18.00;99.70;;;;;;4945235;29;19915;-76
2022/04/17 10:48:07;;;;;;;;;;;18.00;99.80;;;;;;4952630;28;19959;-75
2022/04/17 10:50:43;;;;;;;;;;;18.00;99.50;;;;;;4945447;28;19914;-75
2022/04/17 10:53:27;;;;;;;;;;;18.20;98.90;;;;;;4944971;29;19992;-75
2022/04/17 10:56:02;;;;;;;;;;;18.20;97.80;;;;;;4951342;28;20439;-75
2022/04/17 10:58:34;;;;;;;;;;;18.30;97.60;;;;;;4946462;29;19946;-75
2022/04/17 11:01:00;;;;;;;;;;;18.30;97.00;;;;;;4949357;28;20293;-75
2022/04/17 11:03:26;;;;;;;;;;;18.50;96.50;;;;;;4947743;28;19973;-78
2022/04/17 11:06:12;;;;;;;;;;;18.50;95.90;;;;;;4946698;28;19953;-76
2022/04/17 11:08:56;;;;;;;;;;;18.60;95.00;;;;;;4956862;28;19945;-76
2022/04/17 11:11:22;;;;;;;;;;;18.80;94.10;;;;;;4944148;29;19950;-76
2022/04/17 11:14:06;;;;;;;;;;;18.70;92.40;;;;;;4949998;28;19946;-76
2022/04/17 11:16:36;;;;;;;;;;;18.70;92.60;;;;;;4953621;28;19914;-76
2022/04/17 11:19:02;;;;;;;;;;;18.90;92.40;;;;;;4953389;28;20357;-77
2022/04/17 11:21:38;;;;;;;;;;;18.80;91.40;;;;;;4952378;29;19915;-77
2022/04/17 11:24:03;;;;;;;;;;;18.80;91.80;;;;;;4965566;28;19918;-76
2022/04/17 11:26:48;;;;;;;;;;;18.80;91.60;;;;;;4947853;29;20018;-75
2022/04/17 11:29:13;;;;;;;;;;;19.00;91.60;;;;;;4950811;29;19942;-75
2022/04/17 11:31:39;;;;;;;;;;;19.30;91.20;;;;;;4946917;29;19923;-75
2022/04/17 11:34:04;;;;;;;;;;;19.40;91.00;;;;;;4948316;29;19915;-75
2022/04/17 11:36:36;;;;;;;;;;;19.40;91.10;;;;;;4950250;28;19922;-76
2022/04/17 11:39:01;;;;;;;;;;;19.50;90.60;;;;;;4946539;29;19929;-75
2022/04/17 11:41:27;;;;;;;;;;;19.50;90.70;;;;;;4953323;28;19918;-74
2022/04/17 11:44:00;;;;;;;;;;;19.40;91.20;;;;;;4948219;28;20014;-76
2022/04/17 11:46:25;;;;;;;;;;;19.40;91.30;;;;;;4946586;28;20289;-74
2022/04/17 11:48:53;;;;;;;;;;;19.30;91.30;;;;;;4953600;29;19990;-74
2022/04/17 11:51:19;;;;;;;;;;;19.40;90.90;;;;;;4950154;28;20337;-75
2022/04/17 11:53:45;;;;;;;;;;;19.50;90.30;;;;;;4952699;29;19922;-75
2022/04/17 11:56:11;;;;;;;;;;;19.60;90.20;;;;;;4954896;28;20229;-78
2022/04/17 11:58:36;;;;;;;;;;;19.50;90.30;;;;;;4954836;28;20005;-76
2022/04/17 12:01:07;;;;;;;;;;;19.50;90.40;;;;;;4944406;28;20377;-75
2022/04/17 12:03:34;;;;;;;;;;;19.60;90.80;;;;;;4945494;28;19941;-75
2022/04/17 12:06:03;;;;;;;;;;;19.60;90.00;;;;;;4943162;28;19914;-76
2022/04/17 12:08:35;;;;;;;;;;;19.70;90.20;;;;;;4964899;28;19969;-78
2022/04/17 12:11:04;;;;;;;;;;;19.90;90.10;;;;;;4945288;28;19918;-77
2022/04/17 12:13:29;;;;;;;;;;;19.90;87.50;;;;;;4947018;28;19962;-76
2022/04/17 12:15:59;;;;;;;;;;;19.80;86.50;;;;;;4952238;28;19918;-78
2022/04/17 12:18:25;;;;;;;;;;;19.80;85.80;;;;;;4946690;28;20042;-75
2022/04/17 12:20:56;;;;;;;;;;;19.80;85.70;;;;;;4952112;28;20005;-77
2022/04/17 12:23:23;;;;;;;;;;;19.80;85.80;;;;;;4950541;28;19918;-77
2022/04/17 12:25:49;;;;;;;;;;;19.80;83.00;;;;;;4950157;28;19930;-75
2022/04/17 12:28:14;;;;;;;;;;;19.90;82.50;;;;;;4955561;28;20164;-75
2022/04/17 12:30:41;;;;;;;;;;;19.80;80.60;;;;;;4951707;28;19922;-76
2022/04/17 12:33:25;;;;;;;;;;;19.80;81.00;;;;;;4946457;28;20069;-75
2022/04/17 12:36:22;;;;;;;;;;;19.80;81.10;;;;;;4951006;29;19918;-76
2022/04/17 12:38:56;;;;;;;;;;;19.70;80.50;;;;;;4926253;28;19923;-75
2022/04/17 12:41:25;;;;;;;;;;;19.90;80.10;;;;;;4947146;28;19922;-75
2022/04/17 12:43:51;;;;;;;;;;;19.80;79.80;;;;;;4946948;29;19915;-76
2022/04/17 12:46:30;;;;;;;;;;;19.90;80.00;;;;;;4949812;29;20814;-76
2022/04/17 12:49:03;;;;;;;;;;;19.90;78.90;;;;;;4949058;29;19923;-77
2022/04/17 12:51:29;;;;;;;;;;;20.20;79.40;;;;;;4963780;28;20142;-77
2022/04/17 12:53:55;;;;;;;;;;;20.20;77.90;;;;;;4948340;28;19965;-78
2022/04/17 12:56:24;;;;;;;;;;;20.20;77.30;;;;;;4949158;28;19915;-76
2022/04/17 12:58:52;;;;;;;;;;;20.00;76.50;;;;;;4954773;29;19914;-77
2022/04/17 13:01:25;;;;;;;;;;;20.20;77.20;;;;;;4946571;28;19957;-77
2022/04/17 13:03:51;;;;;;;;;;;20.20;76.10;;;;;;4944316;29;20034;-79
2022/04/17 13:06:18;;;;;;;;;;;20.20;76.00;;;;;;4943778;28;19915;-77
2022/04/17 13:09:00;;;;;;;;;;;20.20;75.40;;;;;;4950736;28;19946;-78
2022/04/17 13:11:28;;;;;;;;;;;20.40;76.60;;;;;;4960862;28;19922;-77
2022/04/17 13:13:59;;;;;;;;;;;20.40;77.00;;;;;;4949351;28;19953;-78
2022/04/17 13:16:25;;;;;;;;;;;20.50;77.40;;;;;;4953834;28;19914;-78
2022/04/17 13:18:53;;;;;;;;;;;20.70;76.30;;;;;;4952116;28;20060;-77
2022/04/17 13:21:19;;;;;;;;;;;20.50;74.50;;;;;;4948705;28;19914;-76
2022/04/17 13:23:45;;;;;;;;;;;20.40;74.80;;;;;;4947656;28;20094;-75
2022/04/17 13:26:12;;;;;;;;;;;20.30;73.80;;;;;;4945456;29;19915;-76
2022/04/17 13:28:39;;;;;;;;;;;20.30;73.80;;;;;;4945501;28;19953;-77
2022/04/17 13:31:05;;;;;;;;;;;20.30;73.60;;;;;;4947522;29;19957;-77
2022/04/17 13:33:31;;;;;;;;;;;20.20;73.70;;;;;;4949727;28;19954;-76
2022/04/17 13:35:57;;;;;;;;;;;20.20;75.00;;;;;;4946313;28;20348;-77
2022/04/17 13:38:29;;;;;;;;;;;20.40;74.80;;;;;;4941359;28;20030;-77
2022/04/17 13:40:54;;;;;;;;;;;20.60;72.50;;;;;;4947918;29;20020;-77
2022/04/17 13:43:21;;;;;;;;;;;20.60;71.80;;;;;;4949997;28;20471;-76
2022/04/17 13:45:47;;;;;;;;;;;20.60;71.10;;;;;;4934090;29;20624;-76
2022/04/17 13:48:13;;;;;;;;;;;20.50;70.30;;;;;;4948582;28;19922;-76
2022/04/17 13:50:39;;;;;;;;;;;20.40;71.20;;;;;;4952322;29;20372;-75
2022/04/17 13:53:05;;;;;;;;;;;20.30;71.30;;;;;;4946736;28;19918;-76
2022/04/17 13:55:31;;;;;;;;;;;20.20;69.90;;;;;;4949682;28;19936;-76
2022/04/17 13:57:57;;;;;;;;;;;20.10;70.50;;;;;;4950810;29;20012;-76
2022/04/17 14:00:22;;;;;;;;;;;20.00;71.10;;;;;;4950345;28;19914;-76
2022/04/17 14:02:48;;;;;;;;;;;20.10;71.60;;;;;;4952766;28;19914;-76
2022/04/17 14:05:14;;;;;;;;;;;20.40;72.10;;;;;;4950242;29;19914;-76
2022/04/17 14:07:40;;;;;;;;;;;20.20;71.50;;;;;;4948632;29;19923;-76
2022/04/17 14:10:07;;;;;;;;;;;20.10;71.10;;;;;;4946778;29;20005;-76
2022/04/17 14:12:33;;;;;;;;;;;20.10;71.00;;;;;;4960646;28;20353;-76
2022/04/17 14:14:58;;;;;;;;;;;20.10;71.70;;;;;;4952274;28;19919;-75
2022/04/17 14:17:24;;;;;;;;;;;20.00;71.20;;;;;;4950550;29;19925;-76
2022/04/17 14:19:53;;;;;;;;;;;20.00;72.70;;;;;;4949966;28;19915;-75
2022/04/17 14:22:23;;;;;;;;;;;20.00;71.40;;;;;;4949574;29;19914;-77
2022/04/17 14:24:50;;;;;;;;;;;20.20;71.40;;;;;;4953426;29;20297;-76
2022/04/17 14:27:15;;;;;;;;;;;20.20;72.00;;;;;;4950487;28;19978;-77
2022/04/17 14:29:42;;;;;;;;;;;20.00;72.80;;;;;;4945906;29;19915;-76
2022/04/17 14:32:07;;;;;;;;;;;20.10;73.70;;;;;;4948351;28;19915;-78
2022/04/17 14:34:33;;;;;;;;;;;20.10;73.30;;;;;;4947290;29;19939;-77
2022/04/17 14:36:59;;;;;;;;;;;20.30;74.50;;;;;;4950270;29;19922;-79
2022/04/17 14:39:25;;;;;;;;;;;20.20;75.20;;;;;;4946430;28;19930;-77
2022/04/17 14:41:51;;;;;;;;;;;20.30;73.70;;;;;;4953860;28;19915;-75
2022/04/17 14:44:16;;;;;;;;;;;20.10;75.00;;;;;;4946093;28;19972;-76
2022/04/17 14:46:42;;;;;;;;;;;20.10;76.40;;;;;;4947957;29;19929;-76